createdAt,value
2017-06-18T00:00:49.430Z,20.00
2017-06-18T00:03:17.696Z,19.90
2017-06-18T00:05:45.996Z,19.90
2017-06-18T00:08:14.268Z,19.90
2017-06-18T00:10:43.324Z,19.90
2017-06-18T00:13:11.630Z,19.90
2017-06-18T00:15:39.924Z,19.90
2017-06-18T00:18:08.199Z,20.00
2017-06-18T00:20:36.500Z,20.00
2017-06-18T00:23:04.776Z,20.00
2017-06-18T00:25:33.064Z,20.00
2017-06-18T00:28:01.339Z,20.00
2017-06-18T00:30:29.664Z,19.90
2017-06-18T00:32:58.716Z,19.90
2017-06-18T00:35:27.014Z,19.90
2017-06-18T00:37:55.307Z,19.90
2017-06-18T00:40:23.581Z,20.00
2017-06-18T00:42:51.885Z,20.00
2017-06-18T00:45:20.920Z,20.00
2017-06-18T00:47:49.200Z,20.00
2017-06-18T00:50:17.468Z,20.00
2017-06-18T00:52:45.771Z,20.10
2017-06-18T00:55:14.047Z,20.00
2017-06-18T00:57:42.339Z,19.90
2017-06-18T01:03:10.319Z,19.70
2017-06-18T01:05:38.587Z,19.70
2017-06-18T01:08:06.871Z,19.70
2017-06-18T01:10:35.148Z,19.70
2017-06-18T01:13:03.442Z,19.70
2017-06-18T01:15:32.518Z,19.60
2017-06-18T01:18:00.825Z,19.60
2017-06-18T01:20:29.851Z,19.70
2017-06-18T01:22:58.138Z,19.60
2017-06-18T01:25:26.416Z,19.70
2017-06-18T01:27:54.689Z,19.80
2017-06-18T01:30:22.979Z,19.80
2017-06-18T01:32:51.243Z,19.80
2017-06-18T01:35:19.526Z,19.90
2017-06-18T01:37:47.795Z,19.90
2017-06-18T01:40:16.083Z,19.90
2017-06-18T01:42:44.355Z,19.90
2017-06-18T01:45:12.650Z,19.90
2017-06-18T01:47:40.919Z,19.90
2017-06-18T01:50:09.194Z,20.00
2017-06-18T01:52:37.455Z,20.00
2017-06-18T01:55:05.742Z,20.00
2017-06-18T01:57:34.050Z,20.00
2017-06-18T02:00:02.331Z,20.10
2017-06-18T02:02:30.595Z,20.10
2017-06-18T02:04:58.859Z,20.00
2017-06-18T02:07:27.139Z,20.10
2017-06-18T02:09:55.413Z,20.00
2017-06-18T02:12:23.688Z,20.00
2017-06-18T02:14:51.964Z,20.00
2017-06-18T02:17:20.246Z,19.90
2017-06-18T02:19:48.520Z,19.90
2017-06-18T02:22:16.800Z,19.80
2017-06-18T02:24:45.054Z,19.80
2017-06-18T02:27:13.342Z,19.90
2017-06-18T02:29:41.612Z,19.90
2017-06-18T02:32:09.890Z,19.90
2017-06-18T02:34:38.167Z,19.80
2017-06-18T02:37:06.451Z,19.80
2017-06-18T02:39:34.731Z,19.80
2017-06-18T02:42:03.043Z,19.60
2017-06-18T02:44:31.311Z,19.60
2017-06-18T02:46:59.589Z,19.60
2017-06-18T02:49:27.886Z,19.60
2017-06-18T02:51:56.147Z,19.60
2017-06-18T02:54:24.426Z,19.60
2017-06-18T02:56:52.701Z,19.60
2017-06-18T02:59:20.994Z,19.40
2017-06-18T03:01:49.255Z,19.50
2017-06-18T03:04:17.546Z,19.40
2017-06-18T03:06:46.574Z,19.40
2017-06-18T03:09:14.882Z,19.30
2017-06-18T03:11:43.132Z,19.30
2017-06-18T03:14:11.419Z,19.40
2017-06-18T03:16:39.694Z,19.40
2017-06-18T03:19:07.979Z,19.40
2017-06-18T03:21:41.848Z,19.50
2017-06-18T03:24:10.894Z,19.50
2017-06-18T03:26:39.167Z,19.50
2017-06-18T03:29:07.471Z,19.60
2017-06-18T03:31:35.751Z,19.60
2017-06-18T03:34:04.094Z,19.50
2017-06-18T03:36:32.382Z,19.50
2017-06-18T03:39:00.652Z,19.50
2017-06-18T03:41:28.931Z,19.50
2017-06-18T03:43:57.211Z,19.60
2017-06-18T03:46:25.504Z,19.60
2017-06-18T03:48:53.779Z,19.60
2017-06-18T03:51:22.064Z,19.60
2017-06-18T03:53:50.339Z,19.60
2017-06-18T03:56:18.618Z,19.50
2017-06-18T03:58:46.891Z,19.40
2017-06-18T04:01:15.170Z,19.40
2017-06-18T04:03:43.444Z,19.40
2017-06-18T04:06:11.719Z,19.30
2017-06-18T04:08:39.991Z,19.40
2017-06-18T04:11:08.283Z,19.40
2017-06-18T04:13:36.556Z,19.50
2017-06-18T04:16:04.863Z,19.50
2017-06-18T04:18:33.914Z,19.60
2017-06-18T04:21:02.193Z,19.50
2017-06-18T04:23:30.476Z,19.50
2017-06-18T04:25:58.744Z,19.30
2017-06-18T04:28:27.022Z,19.20
2017-06-18T04:30:55.287Z,19.20
2017-06-18T04:33:23.574Z,19.20
2017-06-18T04:35:51.840Z,19.20
2017-06-18T04:38:20.128Z,19.10
2017-06-18T04:40:48.392Z,19.00
2017-06-18T04:43:16.670Z,19.00
2017-06-18T04:45:44.963Z,18.90
2017-06-18T04:48:13.306Z,18.80
2017-06-18T04:50:41.572Z,18.70
2017-06-18T04:53:09.841Z,18.80
2017-06-18T04:55:38.135Z,18.70
2017-06-18T04:58:06.407Z,18.70
2017-06-18T05:00:34.699Z,18.70
2017-06-18T05:03:02.966Z,18.80
2017-06-18T05:05:31.262Z,18.90
2017-06-18T05:07:59.537Z,19.00
2017-06-18T05:10:27.826Z,18.90
2017-06-18T05:12:56.090Z,18.90
2017-06-18T05:15:24.395Z,18.80
2017-06-18T05:17:52.675Z,18.80
2017-06-18T05:20:21.056Z,18.90
2017-06-18T05:22:49.740Z,18.90
2017-06-18T05:25:21.939Z,18.70
2017-06-18T05:27:50.896Z,18.50
2017-06-18T05:30:19.588Z,18.50
2017-06-18T05:32:48.367Z,18.50
2017-06-18T05:35:16.841Z,18.50
2017-06-18T05:37:45.898Z,18.60
2017-06-18T05:40:15.269Z,18.60
2017-06-18T05:42:43.964Z,18.60
2017-06-18T05:45:12.644Z,18.70
2017-06-18T05:47:41.643Z,18.70
2017-06-18T05:50:10.651Z,18.80
2017-06-18T05:52:39.427Z,18.80
2017-06-18T05:55:08.237Z,18.90
2017-06-18T05:57:38.746Z,19.10
2017-06-18T06:00:07.054Z,19.20
2017-06-18T06:02:35.363Z,19.50
2017-06-18T06:05:03.687Z,19.80
2017-06-18T06:07:31.950Z,20.10
2017-06-18T06:10:00.274Z,20.50
2017-06-18T06:12:28.548Z,20.90
2017-06-18T06:14:56.834Z,21.20
2017-06-18T06:17:25.106Z,21.30
2017-06-18T06:19:53.387Z,21.50
2017-06-18T06:22:21.667Z,21.50
2017-06-18T06:24:49.956Z,21.70
2017-06-18T06:27:18.219Z,22.00
2017-06-18T06:29:46.524Z,22.10
2017-06-18T06:32:14.808Z,22.30
2017-06-18T06:34:43.091Z,22.30
2017-06-18T06:37:11.367Z,22.40
2017-06-18T06:39:39.666Z,22.40
2017-06-18T06:42:08.711Z,22.60
2017-06-18T06:44:36.991Z,22.60
2017-06-18T06:47:05.282Z,22.70
2017-06-18T06:49:33.541Z,22.50
2017-06-18T06:52:01.829Z,22.80
2017-06-18T06:54:30.096Z,23.00
2017-06-18T06:56:58.367Z,23.10
2017-06-18T06:59:26.638Z,22.60
2017-06-18T07:01:54.928Z,22.20
2017-06-18T07:04:23.187Z,22.20
2017-06-18T07:06:51.472Z,21.90
2017-06-18T07:09:19.735Z,22.00
2017-06-18T07:11:48.019Z,22.10
2017-06-18T07:14:16.279Z,22.20
2017-06-18T07:16:44.558Z,22.30
2017-06-18T07:19:12.827Z,22.30
2017-06-18T07:21:41.096Z,22.20
2017-06-18T07:24:09.380Z,22.50
2017-06-18T07:26:37.656Z,22.70
2017-06-18T07:29:05.934Z,22.90
2017-06-18T07:31:34.207Z,23.10
2017-06-18T07:34:02.491Z,23.00
2017-06-18T07:36:30.760Z,22.90
2017-06-18T07:38:59.863Z,22.30
2017-06-18T07:41:28.119Z,22.30
2017-06-18T07:43:56.399Z,22.40
2017-06-18T07:46:25.433Z,22.50
2017-06-18T07:48:53.722Z,22.50
2017-06-18T07:51:21.998Z,22.50
2017-06-18T07:53:50.294Z,22.90
2017-06-18T07:56:18.567Z,23.20
2017-06-18T07:58:46.852Z,23.40
2017-06-18T08:01:15.130Z,23.50
2017-06-18T08:03:43.399Z,23.30
2017-06-18T08:06:11.682Z,23.50
2017-06-18T08:08:39.943Z,23.50
2017-06-18T08:11:08.224Z,23.60
2017-06-18T08:13:36.493Z,23.70
2017-06-18T08:16:04.775Z,23.90
2017-06-18T08:18:33.047Z,23.90
2017-06-18T08:21:01.326Z,23.80
2017-06-18T08:23:29.586Z,23.70
2017-06-18T08:25:57.867Z,23.40
2017-06-18T08:28:26.127Z,23.40
2017-06-18T08:30:54.432Z,23.00
2017-06-18T08:33:22.700Z,22.80
2017-06-18T08:35:50.961Z,22.90
2017-06-18T08:38:19.244Z,23.10
2017-06-18T08:40:47.503Z,23.30
2017-06-18T08:43:15.788Z,23.40
2017-06-18T08:45:44.075Z,23.60
2017-06-18T08:48:12.358Z,23.40
2017-06-18T08:50:40.631Z,23.10
2017-06-18T08:53:08.923Z,23.20
2017-06-18T08:55:37.193Z,23.40
2017-06-18T08:58:05.483Z,23.50
2017-06-18T09:00:33.751Z,23.70
2017-06-18T09:03:02.045Z,23.80
2017-06-18T09:05:30.346Z,24.10
2017-06-18T09:07:58.627Z,24.20
2017-06-18T09:10:26.913Z,24.30
2017-06-18T09:12:55.983Z,24.70
2017-06-18T09:15:24.255Z,24.60
2017-06-18T09:17:52.515Z,24.70
2017-06-18T09:20:20.799Z,24.40
2017-06-18T09:22:49.072Z,24.00
2017-06-18T09:25:17.355Z,23.90
2017-06-18T09:27:45.627Z,23.80
2017-06-18T09:30:13.914Z,23.80
2017-06-18T09:32:42.175Z,23.90
2017-06-18T09:35:10.467Z,23.80
2017-06-18T09:37:38.730Z,23.90
2017-06-18T09:40:07.032Z,23.70
2017-06-18T09:42:35.382Z,23.90
2017-06-18T09:45:03.662Z,24.10
2017-06-18T09:47:31.923Z,24.10
2017-06-18T09:50:00.222Z,24.20
2017-06-18T09:52:28.486Z,24.40
2017-06-18T09:54:56.884Z,24.60
2017-06-18T09:57:25.171Z,24.60
2017-06-18T09:59:53.443Z,24.60
2017-06-18T10:02:21.756Z,24.60
2017-06-18T10:04:50.024Z,24.70
2017-06-18T10:07:18.316Z,24.70
2017-06-18T10:09:46.591Z,24.70
2017-06-18T10:12:14.883Z,24.70
2017-06-18T10:14:43.156Z,24.60
2017-06-18T10:17:11.448Z,24.70
2017-06-18T10:19:39.715Z,24.90
2017-06-18T10:22:14.503Z,24.80
2017-06-18T10:24:42.766Z,24.80
2017-06-18T10:27:11.055Z,24.70
2017-06-18T10:29:39.332Z,24.80
2017-06-18T10:32:07.643Z,25.00
2017-06-18T10:34:35.958Z,25.10
2017-06-18T10:37:04.231Z,25.10
2017-06-18T10:39:32.510Z,25.20
2017-06-18T10:42:00.774Z,25.40
2017-06-18T10:44:29.077Z,25.40
2017-06-18T10:46:57.454Z,25.10
2017-06-18T10:49:25.743Z,25.10
2017-06-18T10:51:54.014Z,25.10
2017-06-18T10:54:22.324Z,25.30
2017-06-18T10:56:50.575Z,25.30
2017-06-18T10:59:18.870Z,24.50
2017-06-18T11:01:47.138Z,24.50
2017-06-18T11:04:15.442Z,24.60
2017-06-18T11:06:44.484Z,25.20
2017-06-18T11:09:12.759Z,25.20
2017-06-18T11:11:41.039Z,25.40
2017-06-18T11:14:09.310Z,25.30
2017-06-18T11:16:37.595Z,25.30
2017-06-18T11:19:05.870Z,25.50
2017-06-18T11:21:34.152Z,25.80
2017-06-18T11:24:02.422Z,25.90
2017-06-18T11:26:30.756Z,25.90
2017-06-18T11:28:59.791Z,25.90
2017-06-18T11:31:28.075Z,25.90
2017-06-18T11:33:56.487Z,25.90
2017-06-18T11:36:25.345Z,26.10
2017-06-18T11:38:53.619Z,26.30
2017-06-18T11:41:21.926Z,26.40
2017-06-18T11:43:50.201Z,26.00
2017-06-18T11:46:18.479Z,25.70
2017-06-18T11:48:46.763Z,25.60
2017-06-18T11:51:15.032Z,25.60
2017-06-18T11:53:43.331Z,25.60
2017-06-18T11:56:12.362Z,25.30
2017-06-18T11:58:40.642Z,25.30
2017-06-18T12:01:08.927Z,25.20
2017-06-18T12:03:37.210Z,25.40
2017-06-18T12:06:05.495Z,25.50
2017-06-18T12:08:33.786Z,25.60
2017-06-18T12:11:02.072Z,25.70
2017-06-18T12:13:30.372Z,25.90
2017-06-18T12:15:59.394Z,25.50
2017-06-18T12:18:27.690Z,25.50
2017-06-18T12:20:55.964Z,25.50
2017-06-18T12:23:24.263Z,25.50
2017-06-18T12:25:52.543Z,25.50
2017-06-18T12:28:20.815Z,25.40
2017-06-18T12:30:49.108Z,25.50
2017-06-18T12:33:17.395Z,25.40
2017-06-18T12:35:45.679Z,25.40
2017-06-18T12:38:13.955Z,25.20
2017-06-18T12:40:43.010Z,25.40
2017-06-18T12:43:11.282Z,25.40
2017-06-18T12:45:39.562Z,25.60
2017-06-18T12:48:07.834Z,25.50
2017-06-18T12:50:36.119Z,25.70
2017-06-18T12:53:04.424Z,25.60
2017-06-18T12:55:32.711Z,25.80
2017-06-18T12:58:01.751Z,25.90
2017-06-18T13:00:30.043Z,25.90
2017-06-18T13:02:58.315Z,26.00
2017-06-18T13:05:26.594Z,26.00
2017-06-18T13:07:54.884Z,25.80
2017-06-18T13:10:23.158Z,25.60
2017-06-18T13:12:51.443Z,25.70
2017-06-18T13:15:19.706Z,25.80
2017-06-18T13:17:48.012Z,25.90
2017-06-18T13:20:16.297Z,25.90
2017-06-18T13:22:45.359Z,26.00
2017-06-18T13:25:13.634Z,25.90
2017-06-18T13:27:41.958Z,25.90
2017-06-18T13:30:11.118Z,26.00
2017-06-18T13:32:39.415Z,25.90
2017-06-18T13:35:07.684Z,26.10
2017-06-18T13:37:35.995Z,26.10
2017-06-18T13:40:04.270Z,26.30
2017-06-18T13:42:32.539Z,26.00
2017-06-18T13:45:00.836Z,25.70
2017-06-18T13:47:29.107Z,25.70
2017-06-18T13:49:57.390Z,25.80
2017-06-18T13:52:25.667Z,25.70
2017-06-18T13:54:53.962Z,25.70
2017-06-18T13:57:22.248Z,25.70
2017-06-18T13:59:50.533Z,25.60
2017-06-18T14:02:18.803Z,25.70
2017-06-18T14:04:47.097Z,25.70
2017-06-18T14:07:15.350Z,25.80
2017-06-18T14:09:43.636Z,25.90
2017-06-18T14:12:11.903Z,25.70
2017-06-18T14:14:40.187Z,25.80
2017-06-18T14:17:08.464Z,25.90
2017-06-18T14:19:36.747Z,25.90
2017-06-18T14:22:05.034Z,26.10
2017-06-18T14:24:33.305Z,26.10
2017-06-18T14:27:01.586Z,26.40
2017-06-18T14:29:29.863Z,26.40
2017-06-18T14:31:58.208Z,26.40
2017-06-18T14:34:26.486Z,26.40
2017-06-18T14:36:54.786Z,26.20
2017-06-18T14:39:23.061Z,26.10
2017-06-18T14:41:51.348Z,26.00
2017-06-18T14:44:19.624Z,26.10
2017-06-18T14:46:47.911Z,26.10
2017-06-18T14:49:16.174Z,26.20
2017-06-18T14:51:44.468Z,26.20
2017-06-18T14:54:12.730Z,26.40
2017-06-18T14:56:41.024Z,26.40
2017-06-18T14:59:09.297Z,26.30
2017-06-18T15:01:37.613Z,26.40
2017-06-18T15:04:05.902Z,26.50
2017-06-18T15:06:34.193Z,26.50
2017-06-18T15:09:02.511Z,26.40
2017-06-18T15:11:30.790Z,26.20
2017-06-18T15:13:59.071Z,26.20
2017-06-18T15:16:27.349Z,26.20
2017-06-18T15:18:55.685Z,26.20
2017-06-18T15:21:23.950Z,26.20
2017-06-18T15:23:52.238Z,26.10
2017-06-18T15:26:20.562Z,26.00
2017-06-18T15:28:48.856Z,26.10
2017-06-18T15:31:17.131Z,26.30
2017-06-18T15:33:46.191Z,26.50
2017-06-18T15:36:14.464Z,26.50
2017-06-18T15:38:42.754Z,26.60
2017-06-18T15:41:11.032Z,26.60
2017-06-18T15:43:39.355Z,26.60
2017-06-18T15:46:07.637Z,26.60
2017-06-18T15:48:35.919Z,26.50
2017-06-18T15:51:04.202Z,26.40
2017-06-18T15:53:32.478Z,26.30
2017-06-18T15:56:00.771Z,26.20
2017-06-18T15:58:29.035Z,26.30
2017-06-18T16:00:57.326Z,26.30
2017-06-18T16:03:25.603Z,26.40
2017-06-18T16:05:53.895Z,26.40
2017-06-18T16:08:22.162Z,26.50
2017-06-18T16:10:50.457Z,26.40
2017-06-18T16:13:18.732Z,26.50
2017-06-18T16:15:47.019Z,26.40
2017-06-18T16:18:15.295Z,26.40
2017-06-18T16:20:43.582Z,26.40
2017-06-18T16:23:11.858Z,26.40
2017-06-18T16:25:40.943Z,26.40
2017-06-18T16:28:09.248Z,26.40
2017-06-18T16:30:38.270Z,26.50
2017-06-18T16:33:06.626Z,26.40
2017-06-18T16:35:35.662Z,26.50
2017-06-18T16:38:03.956Z,26.50
2017-06-18T16:40:32.232Z,26.50
2017-06-18T16:43:00.521Z,26.50
2017-06-18T16:45:28.818Z,26.40
2017-06-18T16:47:57.116Z,26.30
2017-06-18T16:50:25.404Z,26.30
2017-06-18T16:52:53.678Z,26.30
2017-06-18T16:55:21.963Z,26.40
2017-06-18T16:57:50.259Z,26.30
2017-06-18T17:00:18.538Z,26.20
2017-06-18T17:02:46.815Z,26.10
2017-06-18T17:05:15.099Z,26.00
2017-06-18T17:07:43.371Z,26.00
2017-06-18T17:10:11.660Z,26.00
2017-06-18T17:12:39.935Z,25.90
2017-06-18T17:15:08.237Z,25.80
2017-06-18T17:17:36.507Z,25.90
2017-06-18T17:20:05.085Z,26.00
2017-06-18T17:22:33.351Z,26.00
2017-06-18T17:25:01.731Z,25.90
2017-06-18T17:27:29.994Z,25.80
2017-06-18T17:29:58.283Z,25.70
2017-06-18T17:32:26.551Z,25.80
2017-06-18T17:34:54.843Z,25.80
2017-06-18T17:37:23.171Z,25.90
2017-06-18T17:39:51.452Z,25.90
2017-06-18T17:42:19.722Z,25.90
2017-06-18T17:44:48.031Z,25.90
2017-06-18T17:47:16.302Z,26.00
2017-06-18T17:49:44.659Z,25.90
2017-06-18T17:52:12.944Z,25.90
2017-06-18T17:54:41.246Z,25.70
2017-06-18T17:57:09.516Z,25.70
2017-06-18T17:59:37.794Z,25.70
2017-06-18T18:02:06.093Z,25.70
2017-06-18T18:04:34.394Z,25.70
2017-06-18T18:07:03.465Z,25.70
2017-06-18T18:09:31.739Z,25.70
2017-06-18T18:12:00.027Z,25.70
2017-06-18T18:14:28.339Z,25.60
2017-06-18T18:16:56.638Z,25.50
2017-06-18T18:19:24.911Z,25.50
2017-06-18T18:21:53.242Z,25.50
2017-06-18T18:24:21.494Z,25.50
2017-06-18T18:26:49.766Z,25.50
2017-06-18T18:29:18.044Z,25.60
2017-06-18T18:31:46.312Z,25.60
2017-06-18T18:34:14.601Z,25.50
2017-06-18T18:36:42.876Z,25.50
2017-06-18T18:39:11.195Z,25.50
2017-06-18T18:41:39.451Z,25.40
2017-06-18T18:44:07.734Z,25.30
2017-06-18T18:46:35.995Z,25.30
2017-06-18T18:49:04.272Z,25.20
2017-06-18T18:51:32.543Z,25.20
2017-06-18T18:54:00.828Z,25.10
2017-06-18T18:56:29.095Z,25.10
2017-06-18T18:58:58.845Z,25.00
2017-06-18T19:01:27.102Z,25.00
2017-06-18T19:03:55.375Z,24.90
2017-06-18T19:06:23.686Z,24.90
2017-06-18T19:08:51.963Z,24.80
2017-06-18T19:11:20.251Z,24.80
2017-06-18T19:14:24.947Z,24.70
2017-06-18T19:16:53.224Z,24.70
2017-06-18T19:19:21.486Z,24.60
2017-06-18T19:21:49.774Z,24.60
2017-06-18T19:24:18.063Z,24.50
2017-06-18T19:26:47.119Z,24.50
2017-06-18T19:29:15.392Z,24.40
2017-06-18T19:31:43.755Z,24.40
2017-06-18T19:34:12.026Z,24.40
2017-06-18T19:36:40.311Z,24.30
2017-06-18T19:39:09.604Z,24.20
2017-06-18T19:41:38.563Z,24.20
2017-06-18T19:44:07.604Z,24.20
2017-06-18T19:46:35.909Z,24.20
2017-06-18T19:49:04.195Z,24.20
2017-06-18T19:51:32.468Z,24.10
2017-06-18T19:54:00.864Z,24.10
2017-06-18T19:56:29.124Z,24.10
2017-06-18T19:58:57.436Z,24.10
2017-06-18T20:01:25.705Z,24.10
2017-06-18T20:03:54.765Z,23.90
2017-06-18T20:06:23.047Z,24.00
2017-06-18T20:08:51.360Z,23.90
2017-06-18T20:11:20.403Z,23.80
2017-06-18T20:13:48.695Z,23.80
2017-06-18T20:16:16.979Z,23.80
2017-06-18T20:18:45.282Z,23.70
2017-06-18T20:21:14.323Z,23.60
2017-06-18T20:23:42.651Z,23.60
2017-06-18T20:26:10.916Z,23.60
2017-06-18T20:28:39.197Z,23.50
2017-06-18T20:31:08.334Z,23.40
2017-06-18T20:33:36.619Z,23.30
2017-06-18T20:36:04.919Z,23.30
2017-06-18T20:38:33.196Z,23.20
2017-06-18T20:41:01.492Z,23.10
2017-06-18T20:43:29.759Z,23.10
2017-06-18T20:45:58.049Z,23.00
2017-06-18T20:48:26.342Z,22.90
2017-06-18T20:50:54.632Z,22.80
2017-06-18T20:53:22.895Z,22.80
2017-06-18T20:55:51.185Z,22.80
2017-06-18T20:58:19.455Z,22.70
2017-06-18T21:00:48.509Z,22.50
2017-06-18T21:03:16.782Z,22.50
2017-06-18T21:05:45.072Z,22.50
2017-06-18T21:08:13.344Z,22.40
2017-06-18T21:10:41.668Z,22.40
2017-06-18T21:13:10.707Z,22.30
2017-06-18T21:15:38.980Z,22.30
2017-06-18T21:18:07.275Z,22.40
2017-06-18T21:20:35.554Z,22.40
2017-06-18T21:23:03.857Z,22.40
2017-06-18T21:25:32.119Z,22.40
2017-06-18T21:28:00.419Z,22.20
2017-06-18T21:30:28.702Z,22.20
2017-06-18T21:32:56.992Z,22.20
2017-06-18T21:35:25.261Z,22.20
2017-06-18T21:37:53.551Z,22.20
2017-06-18T21:40:21.823Z,22.10
2017-06-18T21:42:50.231Z,22.10
2017-06-18T21:45:18.503Z,22.00
2017-06-18T21:47:46.820Z,21.90
2017-06-18T21:50:15.092Z,21.90
2017-06-18T21:52:43.380Z,21.90
2017-06-18T21:55:11.676Z,21.80
2017-06-18T21:57:40.703Z,21.70
2017-06-18T22:00:08.999Z,21.70
2017-06-18T22:02:37.276Z,21.70
2017-06-18T22:05:05.568Z,21.60
2017-06-18T22:07:33.844Z,21.50
2017-06-18T22:10:02.133Z,21.50
2017-06-18T22:12:30.404Z,21.50
2017-06-18T22:14:58.695Z,21.50
2017-06-18T22:17:27.736Z,21.40
2017-06-18T22:19:56.039Z,21.30
2017-06-18T22:22:24.311Z,21.30
2017-06-18T22:24:52.600Z,21.30
2017-06-18T22:27:20.867Z,21.30
2017-06-18T22:29:49.152Z,21.30
2017-06-18T22:32:17.424Z,21.20
2017-06-18T22:34:45.730Z,21.10
2017-06-18T22:37:13.999Z,21.00
2017-06-18T22:39:42.295Z,21.00
2017-06-18T22:42:11.335Z,20.90
2017-06-18T22:44:39.617Z,20.90
2017-06-18T22:47:07.908Z,20.80
2017-06-18T22:49:36.178Z,20.70
2017-06-18T22:52:04.499Z,20.70
2017-06-18T22:54:33.551Z,20.70
2017-06-18T22:57:01.840Z,20.70
2017-06-18T22:59:30.119Z,20.70
2017-06-18T23:01:58.405Z,20.70
2017-06-18T23:04:26.699Z,20.70
2017-06-18T23:06:54.994Z,20.70
2017-06-18T23:09:23.267Z,20.60
2017-06-18T23:11:51.573Z,20.60
2017-06-18T23:14:19.853Z,20.50
2017-06-18T23:16:48.177Z,20.40
2017-06-18T23:19:16.457Z,20.40
2017-06-18T23:21:44.728Z,20.40
2017-06-18T23:24:13.023Z,20.40
2017-06-18T23:26:42.067Z,20.30
2017-06-18T23:29:10.363Z,20.30
2017-06-18T23:31:38.656Z,20.30
2017-06-18T23:34:06.939Z,20.20
2017-06-18T23:36:36.000Z,20.10
2017-06-18T23:39:04.303Z,20.00
2017-06-18T23:41:32.573Z,20.00
2017-06-18T23:44:00.888Z,19.90
2017-06-18T23:46:29.184Z,19.80
2017-06-18T23:48:57.488Z,19.80
2017-06-18T23:51:25.761Z,19.80
2017-06-18T23:53:54.047Z,19.70
2017-06-18T23:56:22.331Z,19.70
2017-06-18T23:58:50.605Z,19.70
